Time;durP1;ratioP1;P1;durP2;ratioP2;P2;SDS_P1;SDS_P2;PMS_P1;PMS_P2;Temp;Humidity;BMP_temperature;BMP_pressure;BME280_temperature;BME280_humidity;BME280_pressure;Samples;Min_cycle;Max_cycle;Signal;HPM_P1;HPM_P2
2022/11/04 00:01:43;;;;;;;2.20;0.80;;;11.00;99.90;;;;;;5010553;28;20104;-59
2022/11/04 00:04:10;;;;;;;1.48;0.80;;;10.90;99.90;;;;;;5013296;28;20030;-58
2022/11/04 00:06:37;;;;;;;0.70;0.70;;;10.90;99.90;;;;;;5010804;28;20072;-59
2022/11/04 00:09:04;;;;;;;4.28;0.73;;;10.90;99.90;;;;;;5010510;28;20041;-59
2022/11/04 00:14:15;;;;;;;2.47;0.77;;;10.90;99.90;;;;;;5019439;28;20209;-59
2022/11/04 00:19:25;;;;;;;;;;;10.80;99.90;;;;;;5012552;28;20064;-58
2022/11/04 00:29:55;;;;;;;1.10;0.60;;;10.60;99.90;;;;;;5018779;28;20033;-56
2022/11/04 00:35:05;;;;;;;1.50;1.05;;;10.90;99.90;;;;;;5016733;28;20518;-59
2022/11/04 00:37:31;;;;;;;4.97;0.90;;;10.90;99.90;;;;;;5009967;28;20022;-58
2022/11/04 00:39:56;;;;;;;4.63;0.70;;;10.90;99.90;;;;;;5008804;28;20681;-60
2022/11/04 00:42:22;;;;;;;3.70;1.05;;;11.00;99.90;;;;;;5008831;28;20026;-60
2022/11/04 00:44:47;;;;;;;1.83;0.90;;;11.00;99.90;;;;;;5013111;28;20030;-58
2022/11/04 00:47:13;;;;;;;7.13;1.38;;;11.00;99.90;;;;;;5016805;28;20026;-60
2022/11/04 00:49:38;;;;;;;2.25;1.20;;;11.00;99.90;;;;;;5014800;28;20022;-59
2022/11/04 00:52:04;;;;;;;1.63;1.13;;;11.10;99.90;;;;;;5012509;28;20021;-59
2022/11/04 00:54:30;;;;;;;2.17;1.30;;;11.10;99.90;;;;;;5015266;28;20040;-58
2022/11/04 00:56:55;;;;;;;3.58;1.90;;;11.10;99.90;;;;;;5011116;28;20040;-59
2022/11/04 00:59:21;;;;;;;4.85;2.05;;;11.00;99.90;;;;;;5014694;28;20034;-59
2022/11/04 01:01:46;;;;;;;4.32;1.92;;;11.20;99.90;;;;;;5010535;28;20049;-59
2022/11/04 01:04:12;;;;;;;6.53;2.13;;;11.10;99.90;;;;;;5016285;28;20040;-59
2022/11/04 01:06:37;;;;;;;7.72;2.40;;;11.10;99.90;;;;;;5011039;28;20030;-58
2022/11/04 01:09:07;;;;;;;5.40;2.08;;;11.10;99.90;;;;;;5016096;28;20056;-58
2022/11/04 01:11:33;;;;;;;3.92;1.20;;;11.20;99.90;;;;;;5015194;28;20467;-57
2022/11/04 01:13:58;;;;;;;5.57;1.65;;;11.10;99.90;;;;;;5014038;28;20038;-59
2022/11/04 01:16:24;;;;;;;6.30;1.75;;;11.10;99.90;;;;;;5006803;28;20080;-58
2022/11/04 01:18:50;;;;;;;5.80;1.20;;;11.10;99.90;;;;;;5016604;28;20034;-58
2022/11/04 01:21:16;;;;;;;2.75;1.15;;;11.20;99.90;;;;;;5010325;28;20051;-59
2022/11/04 01:23:43;;;;;;;1.33;0.90;;;11.20;99.90;;;;;;5013349;28;20519;-59
2022/11/04 01:26:15;;;;;;;3.33;0.88;;;11.20;99.90;;;;;;5009769;28;20030;-59
2022/11/04 01:28:41;;;;;;;3.53;1.00;;;11.20;99.90;;;;;;5005064;28;20028;-58
2022/11/04 01:31:12;;;;;;;4.00;1.33;;;11.10;99.90;;;;;;5011963;28;20033;-57
2022/11/04 01:33:37;;;;;;;4.25;1.00;;;11.10;99.90;;;;;;5007984;28;20061;-59
2022/11/04 01:36:05;;;;;;;3.75;0.60;;;11.10;99.90;;;;;;5018391;28;20072;-58
2022/11/04 01:38:30;;;;;;;2.08;0.95;;;11.00;99.90;;;;;;5012398;28;20041;-59
2022/11/04 01:40:57;;;;;;;1.63;0.70;;;11.00;99.90;;;;;;5015429;28;20107;-56
2022/11/04 01:43:40;;;;;;;5.07;1.15;;;11.00;99.90;;;;;;5006412;28;20083;-57
2022/11/04 01:46:11;;;;;;;8.10;1.33;;;10.90;99.90;;;;;;5011057;28;20025;-56
2022/11/04 01:48:37;;;;;;;3.47;0.80;;;10.90;99.90;;;;;;5011465;28;20037;-56
2022/11/04 01:51:03;;;;;;;3.60;0.50;;;10.80;99.90;;;;;;5024529;28;20034;-56
2022/11/04 01:53:36;;;;;;;1.13;0.70;;;10.70;99.90;;;;;;5012039;28;20088;-56
2022/11/04 01:56:10;;;;;;;5.43;0.70;;;10.70;99.90;;;;;;5015440;28;20124;-56
2022/11/04 01:58:39;;;;;;;3.22;0.80;;;10.50;99.90;;;;;;5012533;28;20162;-57
2022/11/04 02:01:06;;;;;;;3.00;0.75;;;10.50;99.90;;;;;;5018616;28;20479;-56
2022/11/04 02:03:39;;;;;;;1.10;0.60;;;10.40;99.90;;;;;;5012384;28;20033;-58
2022/11/04 02:06:06;;;;;;;1.30;0.50;;;10.40;99.90;;;;;;5014323;28;20052;-58
2022/11/04 02:08:33;;;;;;;5.10;0.80;;;10.30;99.90;;;;;;5018504;28;20360;-59
2022/11/04 02:11:00;;;;;;;2.47;0.63;;;10.10;99.90;;;;;;5017050;28;20450;-57
2022/11/04 02:13:29;;;;;;;1.45;0.50;;;10.10;99.90;;;;;;5012660;28;20029;-58
2022/11/04 02:16:03;;;;;;;3.47;0.70;;;10.00;99.90;;;;;;5010672;28;20036;-59
2022/11/04 02:18:41;;;;;;;1.73;0.57;;;10.10;99.90;;;;;;5012430;28;20026;-59
2022/11/04 02:21:44;;;;;;;1.92;0.80;;;10.10;99.90;;;;;;5015108;28;20030;-59
2022/11/04 02:24:31;;;;;;;5.88;0.80;;;10.00;99.90;;;;;;5015059;28;20030;-58
2022/11/04 02:26:59;;;;;;;3.00;0.80;;;9.90;99.90;;;;;;5011070;28;20500;-59
2022/11/04 02:29:46;;;;;;;6.05;0.80;;;9.90;99.90;;;;;;5016785;28;20116;-59
2022/11/04 02:32:38;;;;;;;3.45;1.08;;;9.80;99.90;;;;;;5014740;28;20037;-58
2022/11/04 02:35:29;;;;;;;6.03;1.50;;;9.70;99.90;;;;;;5011753;28;20030;-58
2022/11/04 02:38:25;;;;;;;1.15;0.73;;;9.70;99.90;;;;;;5015095;28;20021;-58
2022/11/04 02:41:00;;;;;;;4.60;0.98;;;9.50;99.90;;;;;;5018618;28;20096;-59
2022/11/04 02:43:44;;;;;;;3.42;0.90;;;9.40;99.90;;;;;;5015671;28;20395;-58
2022/11/04 02:46:20;;;;;;;3.57;1.40;;;9.30;99.90;;;;;;5008868;28;20064;-59
2022/11/04 02:48:57;;;;;;;6.82;0.82;;;9.30;99.90;;;;;;5021333;28;20022;-57
2022/11/04 02:51:31;;;;;;;7.75;1.08;;;9.20;99.90;;;;;;5020493;28;20028;-58
2022/11/04 02:54:06;;;;;;;2.15;0.60;;;9.00;99.90;;;;;;5011078;28;20437;-59
2022/11/04 02:56:35;;;;;;;7.20;0.82;;;8.90;99.90;;;;;;5011871;28;20445;-59
2022/11/04 02:59:06;;;;;;;7.57;1.38;;;8.80;99.90;;;;;;5006930;28;20392;-59
2022/11/04 03:01:36;;;;;;;1.77;0.60;;;8.60;99.90;;;;;;5015949;28;20033;-58
2022/11/04 03:04:27;;;;;;;1.65;0.82;;;8.50;99.90;;;;;;5016781;28;20034;-58
2022/11/04 03:06:55;;;;;;;3.20;1.13;;;8.60;99.90;;;;;;5019630;28;20025;-59
2022/11/04 03:09:22;;;;;;;3.25;0.70;;;8.50;99.90;;;;;;5004294;28;20045;-59
2022/11/04 03:11:54;;;;;;;1.73;0.95;;;8.60;99.90;;;;;;5021013;28;20037;-59
2022/11/04 03:14:24;;;;;;;14.98;0.80;;;8.50;99.90;;;;;;5014268;28;20072;-59
2022/11/04 03:16:58;;;;;;;6.20;1.20;;;8.50;99.90;;;;;;5017463;28;20045;-57
2022/11/04 03:19:43;;;;;;;1.38;0.73;;;8.60;99.90;;;;;;5015097;28;20021;-58
2022/11/04 03:22:16;;;;;;;1.65;0.70;;;8.60;99.90;;;;;;5019473;28;20040;-57
2022/11/04 03:24:44;;;;;;;4.22;0.52;;;8.70;99.90;;;;;;5014916;28;20029;-58
2022/11/04 03:27:39;;;;;;;4.28;0.82;;;8.70;99.90;;;;;;5011089;28;20026;-58
2022/11/04 03:30:07;;;;;;;;;;;8.70;99.90;;;;;;4980409;28;20077;-57
2022/11/04 03:35:00;;;;;;;6.20;0.90;;;8.70;99.90;;;;;;5008099;28;20508;-55
2022/11/04 03:37:26;;;;;;;6.45;1.20;;;8.70;99.90;;;;;;5009138;28;20026;-53
2022/11/04 03:39:51;;;;;;;7.40;1.52;;;8.80;99.90;;;;;;5016243;28;20026;-53
2022/11/04 03:42:18;;;;;;;6.68;1.10;;;8.80;99.90;;;;;;5014560;28;20032;-53
2022/11/04 03:44:49;;;;;;;2.45;0.88;;;8.80;99.90;;;;;;5008132;28;20030;-55
2022/11/04 03:47:16;;;;;;;7.30;1.15;;;8.80;99.90;;;;;;5009713;28;20081;-52
2022/11/04 03:49:44;;;;;;;7.72;1.08;;;8.70;99.90;;;;;;5014175;28;20109;-55
2022/11/04 03:52:10;;;;;;;6.43;1.15;;;8.70;99.90;;;;;;5012284;28;20022;-55
2022/11/04 03:54:36;;;;;;;3.45;1.13;;;8.60;99.90;;;;;;5007597;28;20044;-53
2022/11/04 03:57:24;;;;;;;13.35;1.58;;;8.60;99.90;;;;;;5015845;28;20041;-57
2022/11/04 04:00:01;;;;;;;4.40;1.25;;;8.60;99.90;;;;;;4988211;28;20111;-59
2022/11/04 04:02:48;;;;;;;9.65;1.50;;;8.60;99.90;;;;;;5009659;28;20030;-53
2022/11/04 04:05:26;;;;;;;8.13;1.10;;;8.50;99.90;;;;;;5009009;28;20480;-56
2022/11/04 04:08:07;;;;;;;2.67;1.33;;;8.50;99.90;;;;;;4991903;28;20515;-54
2022/11/04 04:11:02;;;;;;;8.40;1.10;;;8.40;99.90;;;;;;5011456;28;20030;-55
2022/11/04 04:13:50;;;;;;;7.65;1.40;;;8.30;99.90;;;;;;5006749;28;20693;-52
2022/11/04 04:16:23;;;;;;;5.75;1.40;;;8.20;99.90;;;;;;5004306;28;20026;-56
2022/11/04 04:19:02;;;;;;;2.25;1.50;;;8.00;99.90;;;;;;5005510;28;20038;-54
2022/11/04 04:21:31;;;;;;;5.82;1.60;;;8.00;99.90;;;;;;5007500;28;20030;-56
2022/11/04 04:29:34;;;;;;;9.95;1.30;;;7.70;99.90;;;;;;5006873;28;20041;-56
2022/11/04 04:32:00;;;;;;;4.85;1.30;;;7.60;99.90;;;;;;5007706;28;20029;-53
2022/11/04 04:34:28;;;;;;;8.18;1.40;;;7.70;99.90;;;;;;5008948;28;20030;-53
2022/11/04 04:37:21;;;;;;;9.93;1.38;;;7.70;99.90;;;;;;5009774;28;20033;-57
2022/11/04 04:45:31;;;;;;;8.98;1.77;;;7.70;99.90;;;;;;5005888;28;20045;-52
2022/11/04 04:47:57;;;;;;;7.55;2.13;;;7.80;99.90;;;;;;5007641;28;20022;-53
2022/11/04 04:50:27;;;;;;;10.20;1.50;;;7.80;99.90;;;;;;5009123;28;20080;-54
2022/11/04 04:52:55;;;;;;;4.63;1.35;;;7.80;99.90;;;;;;5009308;28;20038;-53
2022/11/04 04:55:21;;;;;;;6.07;2.10;;;7.90;99.90;;;;;;5012326;28;20037;-55
2022/11/04 04:57:47;;;;;;;4.57;2.13;;;7.70;99.90;;;;;;5008290;28;20411;-56
2022/11/04 05:00:16;;;;;;;5.60;1.48;;;7.70;99.90;;;;;;5006991;28;20154;-57
2022/11/04 05:02:41;;;;;;;9.18;1.45;;;7.70;99.90;;;;;;5012071;28;20072;-55
2022/11/04 05:05:08;;;;;;;7.60;1.58;;;7.60;99.90;;;;;;5009380;28;20053;-54
2022/11/04 05:07:33;;;;;;;4.70;1.13;;;7.50;99.90;;;;;;5010569;28;20033;-54
2022/11/04 05:09:59;;;;;;;13.23;1.75;;;7.50;99.90;;;;;;5002625;28;20044;-52
2022/11/04 05:12:24;;;;;;;2.20;1.10;;;7.40;99.90;;;;;;5010411;28;20026;-53
2022/11/04 05:14:50;;;;;;;3.08;1.10;;;7.20;99.90;;;;;;5010634;28;20030;-54
2022/11/04 05:17:15;;;;;;;6.70;1.58;;;7.10;99.90;;;;;;5007512;28;20052;-54
2022/11/04 05:19:41;;;;;;;8.15;1.58;;;7.00;99.90;;;;;;5008974;28;20079;-52
2022/11/04 05:22:07;;;;;;;6.32;1.52;;;6.90;99.90;;;;;;5012025;28;20026;-53
2022/11/04 05:24:32;;;;;;;6.35;1.75;;;6.90;99.90;;;;;;5013779;28;20507;-55
2022/11/04 05:26:58;;;;;;;9.38;1.55;;;6.90;99.90;;;;;;5011808;28;20029;-55
2022/11/04 05:29:23;;;;;;;7.80;1.50;;;6.80;99.90;;;;;;5010107;28;20113;-52
2022/11/04 05:31:49;;;;;;;5.88;1.83;;;6.80;99.90;;;;;;5012203;28;20033;-55
2022/11/04 05:34:14;;;;;;;11.40;1.85;;;6.80;99.90;;;;;;5006754;28;20034;-54
2022/11/04 05:36:40;;;;;;;12.35;2.03;;;6.80;99.90;;;;;;5015887;28;20274;-54
2022/11/04 05:39:07;;;;;;;10.13;2.72;;;6.80;99.90;;;;;;5009974;28;20069;-55
2022/11/04 05:41:33;;;;;;;4.10;1.90;;;6.90;99.90;;;;;;5006661;28;20025;-55
2022/11/04 05:44:00;;;;;;;7.90;2.17;;;6.90;99.90;;;;;;5013362;28;20049;-56
2022/11/04 05:46:27;;;;;;;5.85;1.80;;;7.00;99.90;;;;;;5007945;28;20025;-56
2022/11/04 05:48:53;;;;;;;9.57;2.30;;;7.00;99.90;;;;;;5009026;28;20066;-57
2022/11/04 05:51:23;;;;;;;7.78;1.83;;;7.00;99.90;;;;;;5006790;28;20030;-55
2022/11/04 05:53:49;;;;;;;5.88;2.08;;;7.00;99.90;;;;;;5013069;28;20037;-55
2022/11/04 05:56:14;;;;;;;6.20;1.70;;;7.00;99.90;;;;;;5019801;28;20040;-54
2022/11/04 05:58:40;;;;;;;9.80;2.45;;;7.00;99.90;;;;;;5012123;28;20026;-52
2022/11/04 06:01:23;;;;;;;12.30;2.10;;;6.90;99.90;;;;;;5019276;28;20029;-56
2022/11/04 06:03:49;;;;;;;4.95;2.20;;;7.00;99.90;;;;;;5007232;28;20033;-55
2022/11/04 06:06:14;;;;;;;3.15;1.75;;;7.00;99.90;;;;;;5014376;28;20041;-54
2022/11/04 06:08:40;;;;;;;7.90;1.98;;;7.00;99.90;;;;;;5006777;28;20022;-52
2022/11/04 06:11:06;;;;;;;6.57;1.88;;;7.00;99.90;;;;;;5010765;28;20539;-56
2022/11/04 06:13:32;;;;;;;9.75;2.00;;;6.90;99.90;;;;;;5003685;28;20476;-58
2022/11/04 06:15:57;;;;;;;6.32;2.53;;;6.90;99.90;;;;;;5008171;28;20667;-53
2022/11/04 06:18:23;;;;;;;3.65;1.60;;;6.80;99.90;;;;;;5006427;28;20117;-52
2022/11/04 06:20:48;;;;;;;2.67;1.48;;;6.80;99.90;;;;;;4984909;28;20884;-51
2022/11/04 06:23:14;;;;;;;8.70;2.33;;;6.90;99.90;;;;;;5005955;28;20045;-53
2022/11/04 06:25:39;;;;;;;6.07;2.05;;;6.90;99.90;;;;;;5016995;28;20024;-57
2022/11/04 06:28:05;;;;;;;9.63;2.90;;;6.90;99.90;;;;;;5011809;28;20048;-54
2022/11/04 06:30:30;;;;;;;5.53;1.52;;;6.80;99.90;;;;;;5013985;28;20488;-52
2022/11/04 06:32:56;;;;;;;9.30;1.60;;;6.80;99.90;;;;;;5009056;28;20034;-54
2022/11/04 06:35:22;;;;;;;3.53;1.52;;;6.80;99.90;;;;;;5009543;28;20026;-52
2022/11/04 06:37:47;;;;;;;5.72;2.00;;;6.80;99.90;;;;;;5012145;28;20519;-53
2022/11/04 06:40:13;;;;;;;12.60;1.75;;;6.90;99.90;;;;;;5017625;28;20056;-52
2022/11/04 06:42:39;;;;;;;4.13;1.60;;;6.90;99.90;;;;;;5011934;28;20058;-52
2022/11/04 06:45:05;;;;;;;7.35;1.83;;;6.90;99.90;;;;;;5011082;28;20031;-54
2022/11/04 06:47:30;;;;;;;6.80;1.80;;;7.00;99.90;;;;;;5008049;28;20397;-52
2022/11/04 06:49:56;;;;;;;8.45;1.90;;;7.00;99.90;;;;;;5010900;28;20021;-51
2022/11/04 06:52:21;;;;;;;3.80;1.70;;;7.10;99.90;;;;;;5016720;28;20768;-51
2022/11/04 06:54:47;;;;;;;5.25;1.90;;;7.10;99.90;;;;;;5017490;28;20044;-52
2022/11/04 06:57:12;;;;;;;7.20;1.45;;;7.10;99.90;;;;;;5014345;28;20368;-53
2022/11/04 06:59:38;;;;;;;7.85;1.80;;;7.10;99.90;;;;;;5011407;28;20487;-55
2022/11/04 07:02:04;;;;;;;6.13;1.92;;;7.10;99.90;;;;;;5009695;28;20069;-51
2022/11/04 07:04:30;;;;;;;7.43;2.20;;;7.20;99.90;;;;;;5009799;28;20150;-51
2022/11/04 07:06:55;;;;;;;7.38;1.75;;;7.30;99.90;;;;;;5010077;28;20038;-52
2022/11/04 07:09:21;;;;;;;10.32;2.53;;;7.40;99.90;;;;;;5011730;28;20022;-54
2022/11/04 07:11:47;;;;;;;11.27;2.00;;;7.50;99.90;;;;;;5012017;28;20022;-52
2022/11/04 07:14:13;;;;;;;7.68;1.85;;;7.60;99.90;;;;;;5011509;28;20049;-53
2022/11/04 07:16:38;;;;;;;10.68;1.88;;;7.60;99.90;;;;;;5014269;28;20148;-54
2022/11/04 07:19:04;;;;;;;14.52;2.08;;;7.70;99.90;;;;;;5011500;28;20037;-53
2022/11/04 07:21:30;;;;;;;8.82;1.70;;;7.80;99.90;;;;;;5012111;28;20569;-54
2022/11/04 07:23:56;;;;;;;3.42;1.63;;;7.80;99.90;;;;;;5015469;28;20033;-56
2022/11/04 07:26:21;;;;;;;6.07;1.83;;;7.90;99.90;;;;;;5014339;28;20118;-52
2022/11/04 07:28:47;;;;;;;7.47;2.05;;;8.00;99.90;;;;;;5009793;28;20033;-53
2022/11/04 07:31:13;;;;;;;4.28;1.90;;;8.10;99.90;;;;;;5011574;28;20036;-54
2022/11/04 07:33:39;;;;;;;7.88;1.98;;;8.20;99.90;;;;;;5011120;28;20025;-56
2022/11/04 07:36:07;;;;;;;10.55;2.03;;;8.20;99.90;;;;;;5017766;28;20558;-57
2022/11/04 07:38:33;;;;;;;8.80;2.40;;;8.30;99.90;;;;;;5013871;28;20032;-55
2022/11/04 07:40:59;;;;;;;9.88;1.90;;;8.40;99.90;;;;;;5001037;28;20112;-54
2022/11/04 07:43:25;;;;;;;7.65;1.45;;;8.40;99.90;;;;;;5008092;28;20040;-54
2022/11/04 07:46:06;;;;;;;7.10;1.73;;;8.50;99.90;;;;;;5012513;28;20105;-52
2022/11/04 07:48:31;;;;;;;10.18;2.30;;;8.50;99.90;;;;;;5012074;28;20076;-52
2022/11/04 07:50:58;;;;;;;2.97;1.75;;;8.60;99.90;;;;;;5015793;28;20022;-55
2022/11/04 07:53:25;;;;;;;11.85;2.00;;;8.60;99.90;;;;;;5012727;28;20087;-58
2022/11/04 07:55:50;;;;;;;12.43;1.73;;;8.70;99.90;;;;;;5006566;28;20053;-52
2022/11/04 07:58:18;;;;;;;15.15;2.38;;;8.70;99.90;;;;;;5012257;28;20034;-55
2022/11/04 08:00:43;;;;;;;3.92;1.83;;;8.80;99.90;;;;;;5017308;28;20030;-52
2022/11/04 08:03:09;;;;;;;11.75;2.95;;;8.80;99.90;;;;;;5011174;28;20534;-54
2022/11/04 08:05:34;;;;;;;9.05;3.28;;;8.90;99.90;;;;;;5013596;28;20030;-54
2022/11/04 08:08:00;;;;;;;13.88;2.75;;;9.00;99.90;;;;;;5010853;28;20033;-54
2022/11/04 08:10:26;;;;;;;15.45;3.78;;;9.00;99.90;;;;;;5015408;28;20056;-55
2022/11/04 08:12:51;;;;;;;10.75;3.15;;;9.00;99.90;;;;;;5009625;28;20025;-50
2022/11/04 08:15:17;;;;;;;8.77;3.08;;;9.10;99.90;;;;;;5004653;28;20783;-56
2022/11/04 08:17:43;;;;;;;9.02;2.80;;;9.10;99.90;;;;;;5011999;28;20611;-56
2022/11/04 08:20:09;;;;;;;10.50;3.22;;;9.10;99.90;;;;;;5006501;28;20037;-57
2022/11/04 08:22:34;;;;;;;6.07;2.75;;;9.20;99.90;;;;;;5011320;28;20033;-56
2022/11/04 08:25:00;;;;;;;11.15;2.63;;;9.20;99.90;;;;;;5004125;28;20041;-53
2022/11/04 08:27:25;;;;;;;8.70;2.50;;;9.30;99.90;;;;;;5008603;28;20033;-52
2022/11/04 08:29:51;;;;;;;12.43;3.15;;;9.30;99.90;;;;;;5014814;28;20062;-51
2022/11/04 08:32:17;;;;;;;8.60;2.53;;;9.40;99.90;;;;;;5010679;28;20026;-53
2022/11/04 08:34:43;;;;;;;6.15;2.47;;;9.40;99.90;;;;;;5009174;28;20117;-52
2022/11/04 08:37:11;;;;;;;7.60;3.15;;;9.50;99.90;;;;;;5010087;28;20466;-53
2022/11/04 08:39:37;;;;;;;10.90;3.67;;;9.60;99.90;;;;;;5015396;28;20072;-53
2022/11/04 08:42:03;;;;;;;12.50;3.65;;;9.60;99.90;;;;;;5010493;28;20058;-53
2022/11/04 08:44:28;;;;;;;13.82;3.22;;;9.80;99.90;;;;;;5008871;28;20495;-53
2022/11/04 08:46:54;;;;;;;9.25;2.90;;;9.90;99.90;;;;;;5010972;28;20014;-51
2022/11/04 08:49:19;;;;;;;10.18;3.20;;;10.00;99.90;;;;;;5007052;28;20120;-51
2022/11/04 08:51:48;;;;;;;12.30;2.67;;;10.10;99.90;;;;;;5012683;28;20061;-52
2022/11/04 08:54:14;;;;;;;10.05;2.35;;;10.10;99.90;;;;;;5012840;28;20388;-53
2022/11/04 08:56:40;;;;;;;6.70;2.55;;;10.20;99.90;;;;;;4999476;28;20060;-50
2022/11/04 08:59:07;;;;;;;7.95;2.53;;;10.30;99.90;;;;;;5008294;28;20488;-53
2022/11/04 09:01:35;;;;;;;6.88;2.25;;;10.40;99.90;;;;;;5008275;28;20029;-55
2022/11/04 09:04:02;;;;;;;8.35;2.30;;;10.50;99.90;;;;;;5012632;28;20026;-51
2022/11/04 09:06:31;;;;;;;11.95;2.92;;;10.50;99.90;;;;;;5015541;28;20084;-51
2022/11/04 09:09:02;;;;;;;6.05;2.75;;;10.40;99.90;;;;;;5013076;28;20056;-54
2022/11/04 09:11:32;;;;;;;10.30;2.67;;;10.50;99.90;;;;;;5013329;28;20030;-52
2022/11/04 09:14:00;;;;;;;5.38;2.63;;;10.60;99.90;;;;;;5009741;28;20037;-55
2022/11/04 09:16:27;;;;;;;12.80;2.38;;;10.70;99.90;;;;;;4979927;28;20037;-54
2022/11/04 09:21:29;;;;;;;8.18;2.35;;;10.90;99.90;;;;;;5191954;23;20053;-64
2022/11/04 09:23:54;;;;;;;17.45;2.65;;;10.90;99.90;;;;;;4982603;28;20022;-63
2022/11/04 09:26:21;;;;;;;8.95;2.63;;;10.90;99.90;;;;;;4993145;28;20066;-64
2022/11/04 09:28:47;;;;;;;9.05;2.58;;;11.00;99.90;;;;;;4988697;28;20053;-60
2022/11/04 09:31:17;;;;;;;7.05;2.53;;;11.00;99.90;;;;;;4978597;28;20031;-62
2022/11/04 09:33:45;;;;;;;8.05;3.10;;;11.00;99.90;;;;;;4966921;28;20027;-62
2022/11/04 09:36:11;;;;;;;12.50;2.40;;;11.00;99.90;;;;;;5012413;23;20491;-62
2022/11/04 09:38:38;;;;;;;9.50;2.85;;;11.00;99.90;;;;;;4990964;28;20045;-63
2022/11/04 09:41:38;;;;;;;7.60;2.40;;;11.10;99.90;;;;;;4988183;28;20022;-63
2022/11/04 09:44:58;;;;;;;13.38;3.00;;;11.20;99.90;;;;;;4990801;28;20468;-63
2022/11/04 09:47:25;;;;;;;8.13;2.95;;;11.20;99.90;;;;;;4913230;29;20032;-64
2022/11/04 09:49:57;;;;;;;12.98;2.92;;;11.30;99.90;;;;;;4966200;28;20031;-63
2022/11/04 09:52:40;;;;;;;16.98;2.72;;;11.30;99.90;;;;;;4953476;28;20072;-63
2022/11/04 09:55:14;;;;;;;9.43;2.78;;;11.30;99.90;;;;;;4973590;28;20665;-63
2022/11/04 09:57:40;;;;;;;7.43;2.55;;;11.30;99.90;;;;;;4970924;28;20046;-63
2022/11/04 10:00:09;;;;;;;11.55;3.20;;;11.20;99.90;;;;;;4971446;28;20031;-64
2022/11/04 10:03:02;;;;;;;7.88;2.50;;;11.20;99.90;;;;;;4970802;28;20025;-61
2022/11/04 10:05:37;;;;;;;12.40;2.35;;;11.30;99.90;;;;;;4940832;28;20392;-57
2022/11/04 10:08:17;;;;;;;;;;;11.40;99.90;;;;;;4953541;28;20138;-57
2022/11/04 10:11:05;;;;;;;12.57;2.75;;;11.50;99.90;;;;;;4969106;28;19914;-59
2022/11/04 10:13:49;;;;;;;17.20;3.00;;;11.60;99.90;;;;;;4955131;28;20034;-61
2022/11/04 10:16:25;;;;;;;6.88;2.97;;;11.60;99.90;;;;;;4984255;28;20049;-62
2022/11/04 10:19:11;;;;;;;9.05;3.15;;;11.70;99.90;;;;;;4955953;28;20548;-61
2022/11/04 10:22:10;;;;;;;14.45;3.00;;;11.70;99.90;;;;;;4976754;28;20046;-62
2022/11/04 10:25:06;;;;;;;8.02;2.75;;;11.70;99.90;;;;;;4945603;28;20050;-64
2022/11/04 10:27:35;;;;;;;19.08;4.35;;;11.80;99.90;;;;;;4944600;28;20141;-61
2022/11/04 10:30:07;;;;;;;15.70;3.20;;;11.80;99.90;;;;;;4946131;28;20110;-59
2022/11/04 10:32:44;;;;;;;7.60;2.72;;;11.80;99.90;;;;;;4974595;28;20089;-60
2022/11/04 10:35:29;;;;;;;8.73;3.53;;;11.90;99.90;;;;;;4977155;28;20034;-62
2022/11/04 10:37:57;;;;;;;10.27;2.70;;;12.00;99.90;;;;;;4973701;28;20492;-62
2022/11/04 10:40:27;;;;;;;8.77;2.80;;;11.90;99.90;;;;;;4959992;28;20037;-62
2022/11/04 10:42:55;;;;;;;10.85;3.55;;;11.90;99.90;;;;;;4974508;28;20480;-61
2022/11/04 10:45:33;;;;;;;9.32;3.30;;;12.00;99.90;;;;;;4944841;28;20030;-61
2022/11/04 10:48:04;;;;;;;8.40;2.42;;;12.00;99.90;;;;;;4943946;28;20054;-59
2022/11/04 10:50:36;;;;;;;7.13;3.25;;;12.00;99.90;;;;;;4981950;28;20023;-60
2022/11/04 10:53:15;;;;;;;9.02;3.80;;;12.10;99.90;;;;;;4941632;28;20035;-62
2022/11/04 10:55:48;;;;;;;11.00;3.47;;;12.10;99.90;;;;;;4958287;28;20396;-57
2022/11/04 10:58:29;;;;;;;15.80;3.92;;;12.20;99.90;;;;;;4975132;28;20033;-60
2022/11/04 11:00:56;;;;;;;11.07;3.38;;;12.30;99.90;;;;;;4974072;28;20027;-60
2022/11/04 11:03:31;;;;;;;13.30;3.50;;;12.40;99.90;;;;;;4972245;28;20027;-63
2022/11/04 11:06:14;;;;;;;9.23;3.35;;;12.40;99.90;;;;;;4974968;28;20019;-59
2022/11/04 11:08:41;;;;;;;9.20;2.92;;;12.50;99.90;;;;;;4960614;28;20031;-59
2022/11/04 11:11:08;;;;;;;6.47;2.10;;;12.60;99.90;;;;;;4927371;28;20485;-59
2022/11/04 11:13:36;;;;;;;9.27;2.55;;;12.60;99.90;;;;;;4973354;28;20117;-61
2022/11/04 11:16:11;;;;;;;8.10;2.15;;;12.70;99.90;;;;;;4959435;28;20113;-55
2022/11/04 11:18:38;;;;;;;3.67;1.50;;;12.80;99.90;;;;;;4976643;28;20034;-61
2022/11/04 11:21:12;;;;;;;10.32;1.65;;;12.80;99.90;;;;;;4956945;28;20101;-60
2022/11/04 11:23:46;;;;;;;7.32;1.50;;;12.90;99.90;;;;;;4979950;28;20042;-57
2022/11/04 11:26:30;;;;;;;6.55;1.60;;;12.90;99.90;;;;;;4976617;28;20023;-63
2022/11/04 11:29:01;;;;;;;8.18;1.70;;;12.90;99.90;;;;;;4975189;28;20106;-62
2022/11/04 11:31:35;;;;;;;8.05;1.77;;;12.90;99.90;;;;;;4977973;28;20033;-58
2022/11/04 11:34:18;;;;;;;11.63;2.10;;;12.90;99.90;;;;;;4933983;28;20191;-57
2022/11/04 11:36:46;;;;;;;5.85;1.60;;;13.00;99.90;;;;;;4944358;28;20093;-60
2022/11/04 11:39:18;;;;;;;5.78;2.30;;;13.10;99.90;;;;;;4946630;28;20031;-59
2022/11/04 11:42:03;;;;;;;7.95;1.98;;;13.20;99.90;;;;;;4973927;28;20042;-60
2022/11/04 11:44:43;;;;;;;7.60;2.00;;;13.30;99.90;;;;;;4955486;28;20034;-61
2022/11/04 11:47:41;;;;;;;7.57;2.00;;;13.50;99.90;;;;;;4964122;28;20034;-62
2022/11/04 11:50:17;;;;;;;8.50;2.00;;;14.10;99.90;;;;;;4974002;28;20038;-61
2022/11/04 11:52:44;;;;;;;18.13;2.28;;;14.50;99.90;;;;;;4957913;28;20408;-62
2022/11/04 11:55:27;;;;;;;5.97;1.50;;;14.90;99.90;;;;;;4949227;28;20094;-61
2022/11/04 11:58:02;;;;;;;6.13;1.38;;;15.20;99.90;;;;;;4956146;28;20023;-63
2022/11/04 12:00:31;;;;;;;7.20;1.10;;;14.90;99.90;;;;;;4953018;28;20078;-62
2022/11/04 12:03:15;;;;;;;7.57;1.13;;;14.50;99.90;;;;;;4955847;28;20027;-59
2022/11/04 12:05:57;;;;;;;1.57;0.57;;;14.40;99.90;;;;;;4978777;28;20034;-55
2022/11/04 12:08:23;;;;;;;3.50;0.70;;;14.10;99.90;;;;;;4956829;28;20030;-58
2022/11/04 12:11:06;;;;;;;3.28;1.15;;;14.10;99.90;;;;;;4974081;28;20022;-58
2022/11/04 12:13:43;;;;;;;7.85;1.63;;;14.20;99.90;;;;;;4952764;28;20026;-59
2022/11/04 12:16:15;;;;;;;2.35;1.20;;;14.60;99.90;;;;;;4965849;28;20444;-60
2022/11/04 12:18:41;;;;;;;2.60;0.90;;;14.80;99.90;;;;;;4971589;28;20031;-61
2022/11/04 12:21:19;;;;;;;4.68;1.17;;;14.60;99.90;;;;;;4977827;28;20036;-62
2022/11/04 12:23:56;;;;;;;8.18;2.05;;;14.70;99.90;;;;;;4973439;28;20023;-58
2022/11/04 12:26:30;;;;;;;6.25;1.63;;;14.90;99.90;;;;;;4972702;28;20106;-59
2022/11/04 12:29:04;;;;;;;6.50;1.30;;;14.90;99.90;;;;;;4971441;28;20460;-61
2022/11/04 12:31:54;;;;;;;3.60;1.10;;;14.60;99.90;;;;;;4973934;28;20493;-60
2022/11/04 12:34:58;;;;;;;2.33;0.98;;;14.40;99.90;;;;;;4965748;28;20167;-60
2022/11/04 12:37:34;;;;;;;2.83;1.30;;;14.20;99.90;;;;;;4969421;28;20121;-59
2022/11/04 12:40:18;;;;;;;5.75;1.40;;;14.00;99.90;;;;;;4976846;28;20023;-61
2022/11/04 12:42:50;;;;;;;4.80;0.93;;;13.80;99.90;;;;;;4971896;28;20588;-57
2022/11/04 12:45:25;;;;;;;4.45;1.00;;;13.70;99.90;;;;;;4975564;28;20480;-60
2022/11/04 12:47:58;;;;;;;7.88;1.10;;;13.60;99.90;;;;;;4975730;28;20026;-59
2022/11/04 12:50:48;;;;;;;5.60;0.80;;;13.50;99.90;;;;;;4966713;28;20022;-57
2022/11/04 12:53:33;;;;;;;4.30;0.90;;;13.50;99.90;;;;;;4980512;28;21157;-59
2022/11/04 12:56:26;;;;;;;4.25;0.98;;;13.40;99.90;;;;;;4969791;28;20023;-62
2022/11/04 12:59:36;;;;;;;4.82;1.00;;;13.30;99.90;;;;;;4975073;28;20027;-59
2022/11/04 13:02:12;;;;;;;6.95;0.80;;;13.30;99.90;;;;;;4952756;28;20049;-59
2022/11/04 13:04:52;;;;;;;4.63;1.00;;;13.30;99.90;;;;;;4969390;28;20031;-56
2022/11/04 13:07:30;;;;;;;6.40;0.88;;;13.40;99.90;;;;;;4977381;28;20049;-59
2022/11/04 13:10:01;;;;;;;5.90;1.15;;;13.50;99.90;;;;;;4970453;28;20420;-62
2022/11/04 13:12:35;;;;;;;6.88;0.90;;;13.60;99.90;;;;;;4964783;28;20034;-59
2022/11/04 13:15:06;;;;;;;7.43;0.90;;;13.80;99.90;;;;;;4965480;28;20027;-59
2022/11/04 13:17:36;;;;;;;6.22;1.58;;;13.90;99.90;;;;;;4969186;28;20041;-59
2022/11/04 13:20:12;;;;;;;8.05;1.00;;;14.00;99.90;;;;;;4967508;28;20514;-58
2022/11/04 13:22:43;;;;;;;3.15;0.90;;;14.00;99.90;;;;;;4961192;28;20038;-59
2022/11/04 13:25:18;;;;;;;2.65;0.70;;;13.80;99.90;;;;;;4970641;28;20023;-59
2022/11/04 13:27:47;;;;;;;5.47;0.70;;;13.80;99.90;;;;;;4971614;28;20034;-59
2022/11/04 13:30:24;;;;;;;2.10;0.63;;;13.70;99.90;;;;;;4967543;28;20022;-60
2022/11/04 13:33:02;;;;;;;1.60;0.57;;;13.60;99.90;;;;;;4970923;28;20274;-58
2022/11/04 13:35:35;;;;;;;7.43;1.08;;;13.70;99.90;;;;;;4970127;28;20498;-61
2022/11/04 13:38:11;;;;;;;2.05;0.50;;;13.70;99.90;;;;;;4970769;28;20196;-57
2022/11/04 13:41:02;;;;;;;2.90;0.70;;;13.70;99.90;;;;;;4963386;28;20430;-60
2022/11/04 13:43:38;;;;;;;6.97;0.88;;;13.70;99.90;;;;;;4970117;28;20043;-58
2022/11/04 13:46:10;;;;;;;5.22;0.90;;;13.70;99.90;;;;;;4964040;28;20042;-64